sensor_id;sensor_type;location;lat;lon;timestamp;pressure;altitude;pressure_sealevel;temperature;humidity
15914;BME280;8055;51.930;8.840;2023-03-14T00:01:51;74122.06;;;-145.72;100.00
15914;BME280;8055;51.930;8.840;2023-03-14T00:04:17;74115.84;;;-145.72;100.00
15914;BME280;8055;51.930;8.840;2023-03-14T00:06:42;74122.06;;;-145.72;100.00
15914;BME280;8055;51.930;8.840;2023-03-14T00:09:07;74136.53;;;-145.72;100.00
15914;BME280;8055;51.930;8.840;2023-03-14T00:11:33;74132.41;;;-145.72;100.00
15914;BME280;8055;51.930;8.840;2023-03-14T00:13:58;74153.09;;;-145.72;100.00
15914;BME280;8055;51.930;8.840;2023-03-14T00:16:25;74157.22;;;-145.72;100.00
15914;BME280;8055;51.930;8.840;2023-03-14T00:18:50;74148.94;;;-145.72;100.00
15914;BME280;8055;51.930;8.840;2023-03-14T00:21:16;74134.47;;;-145.72;100.00
15914;BME280;8055;51.930;8.840;2023-03-14T00:23:42;74122.06;;;-145.72;100.00
15914;BME280;8055;51.930;8.840;2023-03-14T00:26:10;74136.53;;;-145.72;100.00
15914;BME280;8055;51.930;8.840;2023-03-14T00:28:36;74120.00;;;-145.72;100.00
15914;BME280;8055;51.930;8.840;2023-03-14T00:31:06;74120.00;;;-145.72;100.00
15914;BME280;8055;51.930;8.840;2023-03-14T00:33:32;74134.47;;;-145.72;100.00
15914;BME280;8055;51.930;8.840;2023-03-14T00:36:06;74140.66;;;-145.72;100.00
15914;BME280;8055;51.930;8.840;2023-03-14T00:38:35;74130.31;;;-145.72;100.00
15914;BME280;8055;51.930;8.840;2023-03-14T00:41:05;74140.66;;;-145.72;100.00
15914;BME280;8055;51.930;8.840;2023-03-14T00:43:31;74155.16;;;-145.72;100.00
15914;BME280;8055;51.930;8.840;2023-03-14T00:45:57;74148.94;;;-145.72;100.00
15914;BME280;8055;51.930;8.840;2023-03-14T00:48:22;74136.53;;;-145.72;100.00
15914;BME280;8055;51.930;8.840;2023-03-14T00:50:48;74134.47;;;-145.72;100.00
15914;BME280;8055;51.930;8.840;2023-03-14T00:53:13;74130.31;;;-145.72;100.00
15914;BME280;8055;51.930;8.840;2023-03-14T00:55:40;74124.13;;;-145.72;100.00
15914;BME280;8055;51.930;8.840;2023-03-14T00:58:07;74126.19;;;-145.72;100.00
15914;BME280;8055;51.930;8.840;2023-03-14T01:00:32;74138.59;;;-145.72;100.00
15914;BME280;8055;51.930;8.840;2023-03-14T01:02:58;74159.28;;;-145.72;100.00
15914;BME280;8055;51.930;8.840;2023-03-14T01:05:24;74167.56;;;-145.72;100.00
15914;BME280;8055;51.930;8.840;2023-03-14T01:07:49;74153.09;;;-145.72;100.00
15914;BME280;8055;51.930;8.840;2023-03-14T01:10:15;74175.84;;;-145.72;100.00
15914;BME280;8055;51.930;8.840;2023-03-14T01:12:41;74167.56;;;-145.72;100.00
15914;BME280;8055;51.930;8.840;2023-03-14T01:15:06;74173.75;;;-145.72;100.00
15914;BME280;8055;51.930;8.840;2023-03-14T01:17:32;74161.34;;;-145.72;100.00
15914;BME280;8055;51.930;8.840;2023-03-14T01:19:59;74169.63;;;-145.72;100.00
15914;BME280;8055;51.930;8.840;2023-03-14T01:22:24;74163.41;;;-145.72;100.00
15914;BME280;8055;51.930;8.840;2023-03-14T01:24:50;74159.28;;;-145.72;100.00
15914;BME280;8055;51.930;8.840;2023-03-14T01:27:16;74165.50;;;-145.72;100.00
15914;BME280;8055;51.930;8.840;2023-03-14T01:29:41;74169.63;;;-145.72;100.00
15914;BME280;8055;51.930;8.840;2023-03-14T01:32:07;74138.59;;;-145.72;100.00
15914;BME280;8055;51.930;8.840;2023-03-14T01:34:32;74130.31;;;-145.72;100.00
15914;BME280;8055;51.930;8.840;2023-03-14T01:36:57;74105.50;;;-145.72;100.00
15914;BME280;8055;51.930;8.840;2023-03-14T01:39:23;74113.78;;;-145.72;100.00
15914;BME280;8055;51.930;8.840;2023-03-14T01:41:48;74134.47;;;-145.72;100.00
15914;BME280;8055;51.930;8.840;2023-03-14T01:44:13;74134.47;;;-145.72;100.00
15914;BME280;8055;51.930;8.840;2023-03-14T01:52:21;74138.59;;;-145.72;100.00
15914;BME280;8055;51.930;8.840;2023-03-14T01:54:46;74134.47;;;-145.72;100.00
15914;BME280;8055;51.930;8.840;2023-03-14T01:57:19;74136.53;;;-145.72;100.00
15914;BME280;8055;51.930;8.840;2023-03-14T01:59:52;74140.66;;;-145.72;100.00
15914;BME280;8055;51.930;8.840;2023-03-14T02:02:19;74132.41;;;-145.72;100.00
15914;BME280;8055;51.930;8.840;2023-03-14T02:04:45;74134.47;;;-145.72;100.00
15914;BME280;8055;51.930;8.840;2023-03-14T02:09:39;74120.00;;;-145.72;100.00
15914;BME280;8055;51.930;8.840;2023-03-14T02:12:06;74120.00;;;-145.72;100.00
15914;BME280;8055;51.930;8.840;2023-03-14T02:14:34;74117.91;;;-145.72;100.00
15914;BME280;8055;51.930;8.840;2023-03-14T02:17:01;74122.06;;;-145.72;100.00
15914;BME280;8055;51.930;8.840;2023-03-14T02:20:03;74120.00;;;-145.72;100.00
15914;BME280;8055;51.930;8.840;2023-03-14T02:22:33;74107.56;;;-145.72;100.00
15914;BME280;8055;51.930;8.840;2023-03-14T02:27:27;74107.56;;;-145.72;100.00
15914;BME280;8055;51.930;8.840;2023-03-14T02:29:58;74117.91;;;-145.72;100.00
15914;BME280;8055;51.930;8.840;2023-03-14T02:32:25;74111.72;;;-145.72;100.00
15914;BME280;8055;51.930;8.840;2023-03-14T02:34:55;74103.44;;;-145.72;100.00
15914;BME280;8055;51.930;8.840;2023-03-14T02:37:24;74103.44;;;-145.72;100.00
15914;BME280;8055;51.930;8.840;2023-03-14T02:39:52;74113.78;;;-145.72;100.00
15914;BME280;8055;51.930;8.840;2023-03-14T02:42:17;74097.22;;;-145.72;100.00
15914;BME280;8055;51.930;8.840;2023-03-14T02:44:56;74105.50;;;-145.72;100.00
15914;BME280;8055;51.930;8.840;2023-03-14T02:47:29;74122.06;;;-145.72;100.00
15914;BME280;8055;51.930;8.840;2023-03-14T02:50:01;74136.53;;;-145.72;100.00
15914;BME280;8055;51.930;8.840;2023-03-14T02:52:27;74153.09;;;-145.72;100.00
15914;BME280;8055;51.930;8.840;2023-03-14T02:54:53;74211.00;;;-145.72;100.00
15914;BME280;8055;51.930;8.840;2023-03-14T02:57:18;74283.41;;;-145.72;100.00
15914;BME280;8055;51.930;8.840;2023-03-14T02:59:44;74302.00;;;-145.72;100.00
15914;BME280;8055;51.930;8.840;2023-03-14T03:02:09;74312.34;;;-145.72;100.00
15914;BME280;8055;51.930;8.840;2023-03-14T03:04:34;74333.03;;;-145.72;100.00
15914;BME280;8055;51.930;8.840;2023-03-14T03:07:00;74343.38;;;-145.72;100.00
15914;BME280;8055;51.930;8.840;2023-03-14T03:09:25;74345.44;;;-145.72;100.00
15914;BME280;8055;51.930;8.840;2023-03-14T03:11:51;74357.84;;;-145.72;100.00
15914;BME280;8055;51.930;8.840;2023-03-14T03:14:16;74351.66;;;-145.72;100.00
15914;BME280;8055;51.930;8.840;2023-03-14T03:16:41;74353.72;;;-145.72;100.00
15914;BME280;8055;51.930;8.840;2023-03-14T03:19:06;74349.59;;;-145.72;100.00
15914;BME280;8055;51.930;8.840;2023-03-14T03:21:32;74359.94;;;-145.72;100.00
15914;BME280;8055;51.930;8.840;2023-03-14T03:23:57;74357.84;;;-145.72;100.00
15914;BME280;8055;51.930;8.840;2023-03-14T03:26:23;74362.00;;;-145.72;100.00
15914;BME280;8055;51.930;8.840;2023-03-14T03:28:50;74372.34;;;-145.72;100.00
15914;BME280;8055;51.930;8.840;2023-03-14T03:31:16;74376.47;;;-145.72;100.00
15914;BME280;8055;51.930;8.840;2023-03-14T03:33:41;74390.94;;;-145.72;100.00
15914;BME280;8055;51.930;8.840;2023-03-14T03:36:07;74401.28;;;-145.72;100.00
15914;BME280;8055;51.930;8.840;2023-03-14T03:38:33;74405.44;;;-145.72;100.00
15914;BME280;8055;51.930;8.840;2023-03-14T03:41:02;74409.56;;;-145.72;100.00
15914;BME280;8055;51.930;8.840;2023-03-14T03:43:27;74405.44;;;-145.72;100.00
15914;BME280;8055;51.930;8.840;2023-03-14T03:45:53;74407.50;;;-145.72;100.00
15914;BME280;8055;51.930;8.840;2023-03-14T03:48:18;74409.56;;;-145.72;100.00
15914;BME280;8055;51.930;8.840;2023-03-14T03:50:45;74401.28;;;-145.72;100.00
15914;BME280;8055;51.930;8.840;2023-03-14T03:53:11;74403.38;;;-145.72;100.00
15914;BME280;8055;51.930;8.840;2023-03-14T03:55:36;74403.38;;;-145.72;100.00
15914;BME280;8055;51.930;8.840;2023-03-14T03:58:02;74399.22;;;-145.72;100.00
15914;BME280;8055;51.930;8.840;2023-03-14T04:00:27;74409.56;;;-145.72;100.00
15914;BME280;8055;51.930;8.840;2023-03-14T04:02:52;74409.56;;;-145.72;100.00
15914;BME280;8055;51.930;8.840;2023-03-14T04:05:18;74405.44;;;-145.72;100.00
15914;BME280;8055;51.930;8.840;2023-03-14T04:07:43;74409.56;;;-145.72;100.00
15914;BME280;8055;51.930;8.840;2023-03-14T04:10:09;74409.56;;;-145.72;100.00
15914;BME280;8055;51.930;8.840;2023-03-14T04:12:34;74421.97;;;-145.72;100.00
15914;BME280;8055;51.930;8.840;2023-03-14T04:15:00;74407.50;;;-145.72;100.00
15914;BME280;8055;51.930;8.840;2023-03-14T04:17:25;74401.28;;;-145.72;100.00
15914;BME280;8055;51.930;8.840;2023-03-14T04:19:50;74401.28;;;-145.72;100.00
15914;BME280;8055;51.930;8.840;2023-03-14T04:22:18;74399.22;;;-145.72;100.00
15914;BME280;8055;51.930;8.840;2023-03-14T04:24:43;74393.03;;;-145.72;100.00
15914;BME280;8055;51.930;8.840;2023-03-14T04:27:09;74409.56;;;-145.72;100.00
15914;BME280;8055;51.930;8.840;2023-03-14T04:29:34;74397.16;;;-145.72;100.00
15914;BME280;8055;51.930;8.840;2023-03-14T04:32:00;74393.03;;;-145.72;100.00
15914;BME280;8055;51.930;8.840;2023-03-14T04:34:25;74401.28;;;-145.72;100.00
15914;BME280;8055;51.930;8.840;2023-03-14T04:36:50;74388.88;;;-145.72;100.00
15914;BME280;8055;51.930;8.840;2023-03-14T04:39:16;74388.88;;;-145.72;100.00
15914;BME280;8055;51.930;8.840;2023-03-14T04:41:41;74390.94;;;-145.72;100.00
15914;BME280;8055;51.930;8.840;2023-03-14T04:44:06;74380.63;;;-145.72;100.00
15914;BME280;8055;51.930;8.840;2023-03-14T04:46:32;74384.75;;;-145.72;100.00
15914;BME280;8055;51.930;8.840;2023-03-14T04:48:57;74372.34;;;-145.72;100.00
15914;BME280;8055;51.930;8.840;2023-03-14T04:51:23;74370.28;;;-145.72;100.00
15914;BME280;8055;51.930;8.840;2023-03-14T04:53:52;74380.63;;;-145.72;100.00
15914;BME280;8055;51.930;8.840;2023-03-14T04:56:18;74374.41;;;-145.72;100.00
15914;BME280;8055;51.930;8.840;2023-03-14T04:58:43;74366.13;;;-145.72;100.00
15914;BME280;8055;51.930;8.840;2023-03-14T05:01:09;74366.13;;;-145.72;100.00
15914;BME280;8055;51.930;8.840;2023-03-14T05:03:35;74359.94;;;-145.72;100.00
15914;BME280;8055;51.930;8.840;2023-03-14T05:06:04;74362.00;;;-145.72;100.00
15914;BME280;8055;51.930;8.840;2023-03-14T05:08:29;74364.06;;;-145.72;100.00
15914;BME280;8055;51.930;8.840;2023-03-14T05:10:56;74364.06;;;-145.72;100.00
15914;BME280;8055;51.930;8.840;2023-03-14T05:13:22;74368.19;;;-145.72;100.00
15914;BME280;8055;51.930;8.840;2023-03-14T05:15:47;74376.47;;;-145.72;100.00
15914;BME280;8055;51.930;8.840;2023-03-14T05:18:13;74362.00;;;-145.72;100.00
15914;BME280;8055;51.930;8.840;2023-03-14T05:20:38;74359.94;;;-145.72;100.00
15914;BME280;8055;51.930;8.840;2023-03-14T05:23:04;74353.72;;;-145.72;100.00
15914;BME280;8055;51.930;8.840;2023-03-14T05:25:29;74357.84;;;-145.72;100.00
15914;BME280;8055;51.930;8.840;2023-03-14T05:27:55;74357.84;;;-145.72;100.00
15914;BME280;8055;51.930;8.840;2023-03-14T05:30:21;74351.66;;;-145.72;100.00
15914;BME280;8055;51.930;8.840;2023-03-14T05:32:47;74347.50;;;-145.72;100.00
15914;BME280;8055;51.930;8.840;2023-03-14T05:35:13;74351.66;;;-145.72;100.00
15914;BME280;8055;51.930;8.840;2023-03-14T05:37:38;74357.84;;;-145.72;100.00
15914;BME280;8055;51.930;8.840;2023-03-14T05:40:05;74351.66;;;-145.72;100.00
15914;BME280;8055;51.930;8.840;2023-03-14T05:42:32;74359.94;;;-145.72;100.00
15914;BME280;8055;51.930;8.840;2023-03-14T05:44:57;74357.84;;;-145.72;100.00
15914;BME280;8055;51.930;8.840;2023-03-14T05:47:22;74364.06;;;-145.72;100.00
15914;BME280;8055;51.930;8.840;2023-03-14T05:49:48;74355.78;;;-145.72;100.00
15914;BME280;8055;51.930;8.840;2023-03-14T05:52:13;74366.13;;;-145.72;100.00
15914;BME280;8055;51.930;8.840;2023-03-14T05:54:39;74362.00;;;-145.72;100.00
15914;BME280;8055;51.930;8.840;2023-03-14T05:57:05;74368.19;;;-145.72;100.00
15914;BME280;8055;51.930;8.840;2023-03-14T05:59:30;74370.28;;;-145.72;100.00
15914;BME280;8055;51.930;8.840;2023-03-14T06:01:56;74351.66;;;-145.72;100.00
15914;BME280;8055;51.930;8.840;2023-03-14T06:04:21;74349.59;;;-145.72;100.00
15914;BME280;8055;51.930;8.840;2023-03-14T06:06:47;74353.72;;;-145.72;100.00
15914;BME280;8055;51.930;8.840;2023-03-14T06:09:12;74362.00;;;-145.72;100.00
15914;BME280;8055;51.930;8.840;2023-03-14T06:11:38;74376.47;;;-145.72;100.00
15914;BME280;8055;51.930;8.840;2023-03-14T06:14:03;74355.78;;;-145.72;100.00
15914;BME280;8055;51.930;8.840;2023-03-14T06:16:28;74374.41;;;-145.72;100.00
15914;BME280;8055;51.930;8.840;2023-03-14T06:18:54;74372.34;;;-145.72;100.00
15914;BME280;8055;51.930;8.840;2023-03-14T06:21:19;74382.69;;;-145.72;100.00
15914;BME280;8055;51.930;8.840;2023-03-14T06:23:45;74376.47;;;-145.72;100.00
15914;BME280;8055;51.930;8.840;2023-03-14T06:26:10;74390.94;;;-145.72;100.00
15914;BME280;8055;51.930;8.840;2023-03-14T06:28:37;74401.28;;;-145.72;100.00
15914;BME280;8055;51.930;8.840;2023-03-14T06:31:03;74397.16;;;-145.72;100.00
15914;BME280;8055;51.930;8.840;2023-03-14T06:33:28;74401.28;;;-145.72;100.00
15914;BME280;8055;51.930;8.840;2023-03-14T06:35:54;74401.28;;;-145.72;100.00
15914;BME280;8055;51.930;8.840;2023-03-14T06:38:19;74409.56;;;-145.72;100.00
15914;BME280;8055;51.930;8.840;2023-03-14T06:40:45;74401.28;;;-145.72;100.00
15914;BME280;8055;51.930;8.840;2023-03-14T06:43:10;74405.44;;;-145.72;100.00
15914;BME280;8055;51.930;8.840;2023-03-14T06:45:36;74397.16;;;-145.72;100.00
15914;BME280;8055;51.930;8.840;2023-03-14T06:48:02;74384.75;;;-145.72;100.00
15914;BME280;8055;51.930;8.840;2023-03-14T06:50:27;74399.22;;;-145.72;100.00
15914;BME280;8055;51.930;8.840;2023-03-14T06:52:53;74401.28;;;-145.72;100.00
15914;BME280;8055;51.930;8.840;2023-03-14T06:55:18;74415.78;;;-145.72;100.00
15914;BME280;8055;51.930;8.840;2023-03-14T06:57:44;74421.97;;;-145.72;100.00
15914;BME280;8055;51.930;8.840;2023-03-14T07:00:11;74413.72;;;-145.72;100.00
15914;BME280;8055;51.930;8.840;2023-03-14T07:02:36;74434.41;;;-145.72;100.00
15914;BME280;8055;51.930;8.840;2023-03-14T07:05:02;74417.84;;;-145.72;100.00
15914;BME280;8055;51.930;8.840;2023-03-14T07:07:28;74438.53;;;-145.72;100.00
15914;BME280;8055;51.930;8.840;2023-03-14T07:09:54;74438.53;;;-145.72;100.00
15914;BME280;8055;51.930;8.840;2023-03-14T07:12:19;74440.59;;;-145.72;100.00
15914;BME280;8055;51.930;8.840;2023-03-14T07:14:45;74453.00;;;-145.72;100.00
15914;BME280;8055;51.930;8.840;2023-03-14T07:17:10;74448.88;;;-145.72;100.00
15914;BME280;8055;51.930;8.840;2023-03-14T07:19:35;74457.16;;;-145.72;100.00
15914;BME280;8055;51.930;8.840;2023-03-14T07:22:01;74438.53;;;-145.72;100.00
15914;BME280;8055;51.930;8.840;2023-03-14T07:24:27;74442.66;;;-145.72;100.00
15914;BME280;8055;51.930;8.840;2023-03-14T07:26:52;74442.66;;;-145.72;100.00
15914;BME280;8055;51.930;8.840;2023-03-14T07:29:17;74436.47;;;-145.72;100.00
15914;BME280;8055;51.930;8.840;2023-03-14T07:31:43;74430.25;;;-145.72;100.00
15914;BME280;8055;51.930;8.840;2023-03-14T07:34:08;74428.19;;;-145.72;100.00
15914;BME280;8055;51.930;8.840;2023-03-14T07:36:34;74426.13;;;-145.72;100.00
15914;BME280;8055;51.930;8.840;2023-03-14T07:39:00;74426.13;;;-145.72;100.00
15914;BME280;8055;51.930;8.840;2023-03-14T07:41:26;74424.06;;;-145.72;100.00
15914;BME280;8055;51.930;8.840;2023-03-14T07:43:51;74407.50;;;-145.72;100.00
15914;BME280;8055;51.930;8.840;2023-03-14T07:46:16;74401.28;;;-145.72;100.00
15914;BME280;8055;51.930;8.840;2023-03-14T07:48:42;74399.22;;;-145.72;100.00
15914;BME280;8055;51.930;8.840;2023-03-14T07:51:08;74388.88;;;-145.72;100.00
15914;BME280;8055;51.930;8.840;2023-03-14T07:53:33;74380.63;;;-145.72;100.00
15914;BME280;8055;51.930;8.840;2023-03-14T07:55:59;74357.84;;;-145.72;100.00
15914;BME280;8055;51.930;8.840;2023-03-14T07:58:24;74351.66;;;-145.72;100.00
15914;BME280;8055;51.930;8.840;2023-03-14T08:00:50;74343.38;;;-145.72;100.00
15914;BME280;8055;51.930;8.840;2023-03-14T08:03:16;74330.97;;;-145.72;100.00
15914;BME280;8055;51.930;8.840;2023-03-14T08:05:42;74330.97;;;-145.72;100.00
15914;BME280;8055;51.930;8.840;2023-03-14T08:08:08;74306.16;;;-145.72;100.00
15914;BME280;8055;51.930;8.840;2023-03-14T08:10:33;74314.41;;;-145.72;100.00
15914;BME280;8055;51.930;8.840;2023-03-14T08:13:00;74304.06;;;-145.72;100.00
15914;BME280;8055;51.930;8.840;2023-03-14T08:15:27;74295.81;;;-145.72;100.00
15914;BME280;8055;51.930;8.840;2023-03-14T08:17:53;74287.53;;;-145.72;100.00
15914;BME280;8055;51.930;8.840;2023-03-14T08:20:21;74285.47;;;-145.72;100.00
15914;BME280;8055;51.930;8.840;2023-03-14T08:22:46;74270.97;;;-145.72;100.00
15914;BME280;8055;51.930;8.840;2023-03-14T08:25:12;74266.84;;;-145.72;100.00
15914;BME280;8055;51.930;8.840;2023-03-14T08:27:38;74264.78;;;-145.72;100.00
15914;BME280;8055;51.930;8.840;2023-03-14T08:30:09;74256.50;;;-145.72;100.00
15914;BME280;8055;51.930;8.840;2023-03-14T08:32:36;74246.16;;;-145.72;100.00
15914;BME280;8055;51.930;8.840;2023-03-14T08:35:01;74242.03;;;-145.72;100.00
15914;BME280;8055;51.930;8.840;2023-03-14T08:37:27;74229.63;;;-145.72;100.00
15914;BME280;8055;51.930;8.840;2023-03-14T08:39:53;74202.72;;;-145.72;100.00
15914;BME280;8055;51.930;8.840;2023-03-14T08:42:18;74206.84;;;-145.72;100.00
15914;BME280;8055;51.930;8.840;2023-03-14T08:44:44;74211.00;;;-145.72;100.00
15914;BME280;8055;51.930;8.840;2023-03-14T08:47:10;74204.78;;;-145.72;100.00
15914;BME280;8055;51.930;8.840;2023-03-14T08:49:35;74213.06;;;-145.72;100.00
15914;BME280;8055;51.930;8.840;2023-03-14T08:52:02;74219.28;;;-145.72;100.00
15914;BME280;8055;51.930;8.840;2023-03-14T08:54:28;74215.13;;;-145.72;100.00
15914;BME280;8055;51.930;8.840;2023-03-14T08:56:54;74219.28;;;-145.72;100.00
15914;BME280;8055;51.930;8.840;2023-03-14T08:59:19;74219.28;;;-145.72;100.00
15914;BME280;8055;51.930;8.840;2023-03-14T09:01:45;74217.19;;;-145.72;100.00
15914;BME280;8055;51.930;8.840;2023-03-14T09:04:10;74200.66;;;-145.72;100.00
15914;BME280;8055;51.930;8.840;2023-03-14T09:06:35;74221.34;;;-145.72;100.00
15914;BME280;8055;51.930;8.840;2023-03-14T09:09:01;74221.34;;;-145.72;100.00
15914;BME280;8055;51.930;8.840;2023-03-14T09:11:27;74229.63;;;-145.72;100.00
15914;BME280;8055;51.930;8.840;2023-03-14T09:13:52;74237.88;;;-145.72;100.00
15914;BME280;8055;51.930;8.840;2023-03-14T09:16:17;74229.63;;;-145.72;100.00
15914;BME280;8055;51.930;8.840;2023-03-14T09:18:43;74217.19;;;-145.72;100.00
15914;BME280;8055;51.930;8.840;2023-03-14T09:21:08;74206.84;;;-145.72;100.00
15914;BME280;8055;51.930;8.840;2023-03-14T09:23:33;74211.00;;;-145.72;100.00
15914;BME280;8055;51.930;8.840;2023-03-14T09:25:59;74204.78;;;-145.72;100.00
15914;BME280;8055;51.930;8.840;2023-03-14T09:28:26;74204.78;;;-145.72;100.00
15914;BME280;8055;51.930;8.840;2023-03-14T09:30:51;74211.00;;;-145.72;100.00
15914;BME280;8055;51.930;8.840;2023-03-14T09:33:17;74206.84;;;-145.72;100.00
15914;BME280;8055;51.930;8.840;2023-03-14T09:35:43;74200.66;;;-145.72;100.00
15914;BME280;8055;51.930;8.840;2023-03-14T09:38:09;74190.31;;;-145.72;100.00
15914;BME280;8055;51.930;8.840;2023-03-14T09:40:35;74171.69;;;-145.72;100.00
15914;BME280;8055;51.930;8.840;2023-03-14T09:43:01;74153.09;;;-145.72;100.00
15914;BME280;8055;51.930;8.840;2023-03-14T09:45:31;74151.00;;;-145.72;100.00
15914;BME280;8055;51.930;8.840;2023-03-14T09:47:57;74155.16;;;-145.72;100.00
15914;BME280;8055;51.930;8.840;2023-03-14T09:50:23;74153.09;;;-145.72;100.00
15914;BME280;8055;51.930;8.840;2023-03-14T09:52:51;74165.50;;;-145.72;100.00
15914;BME280;8055;51.930;8.840;2023-03-14T09:55:22;74171.69;;;-145.72;100.00
15914;BME280;8055;51.930;8.840;2023-03-14T09:57:49;74144.81;;;-145.72;100.00
15914;BME280;8055;51.930;8.840;2023-03-14T10:00:21;74148.94;;;-145.72;100.00
15914;BME280;8055;51.930;8.840;2023-03-14T10:02:54;74140.66;;;-145.72;100.00
15914;BME280;8055;51.930;8.840;2023-03-14T10:05:23;74138.59;;;-145.72;100.00
15914;BME280;8055;51.930;8.840;2023-03-14T10:07:49;74163.41;;;-145.72;100.00
15914;BME280;8055;51.930;8.840;2023-03-14T10:10:23;74165.50;;;-145.72;100.00
15914;BME280;8055;51.930;8.840;2023-03-14T10:12:56;74179.97;;;-145.72;100.00
15914;BME280;8055;51.930;8.840;2023-03-14T10:15:30;74163.41;;;-145.72;100.00
15914;BME280;8055;51.930;8.840;2023-03-14T10:17:59;74173.75;;;-145.72;100.00
15914;BME280;8055;51.930;8.840;2023-03-14T10:20:29;74157.22;;;-145.72;100.00
15914;BME280;8055;51.930;8.840;2023-03-14T10:23:00;74165.50;;;-145.72;100.00
15914;BME280;8055;51.930;8.840;2023-03-14T10:25:31;74163.41;;;-145.72;100.00
15914;BME280;8055;51.930;8.840;2023-03-14T10:27:57;74159.28;;;-145.72;100.00
15914;BME280;8055;51.930;8.840;2023-03-14T10:30:46;74148.94;;;-145.72;100.00
15914;BME280;8055;51.930;8.840;2023-03-14T10:35:44;74167.56;;;-145.72;100.00
15914;BME280;8055;51.930;8.840;2023-03-14T10:38:16;74169.63;;;-145.72;100.00
15914;BME280;8055;51.930;8.840;2023-03-14T10:40:47;74171.69;;;-145.72;100.00
15914;BME280;8055;51.930;8.840;2023-03-14T10:43:17;74169.63;;;-145.72;100.00
15914;BME280;8055;51.930;8.840;2023-03-14T10:45:51;74175.84;;;-145.72;100.00
15914;BME280;8055;51.930;8.840;2023-03-14T10:53:43;74211.00;;;-145.72;100.00
15914;BME280;8055;51.930;8.840;2023-03-14T10:56:18;74215.13;;;-145.72;100.00
15914;BME280;8055;51.930;8.840;2023-03-14T10:58:50;74221.34;;;-145.72;100.00
15914;BME280;8055;51.930;8.840;2023-03-14T11:01:48;74225.47;;;-145.72;100.00
15914;BME280;8055;51.930;8.840;2023-03-14T11:07:17;74339.25;;;-145.72;100.00
15914;BME280;8055;51.930;8.840;2023-03-14T11:09:53;74403.38;;;-145.72;100.00
15914;BME280;8055;51.930;8.840;2023-03-14T11:15:02;74492.31;;;-145.72;100.00
15914;BME280;8055;51.930;8.840;2023-03-14T11:17:46;74531.63;;;-145.72;100.00
15914;BME280;8055;51.930;8.840;2023-03-14T11:23:03;74562.66;;;-145.72;100.00
15914;BME280;8055;51.930;8.840;2023-03-14T11:25:54;74587.47;;;-145.72;100.00
15914;BME280;8055;51.930;8.840;2023-03-14T11:28:29;74639.19;;;-145.72;100.00
15914;BME280;8055;51.930;8.840;2023-03-14T11:31:28;74684.69;;;-145.72;100.00
15914;BME280;8055;51.930;8.840;2023-03-14T11:36:31;74802.63;;;-145.72;100.00
15914;BME280;8055;51.930;8.840;2023-03-14T11:38:59;74823.28;;;-145.72;100.00
15914;BME280;8055;51.930;8.840;2023-03-14T11:41:40;74839.84;;;-145.72;100.00
15914;BME280;8055;51.930;8.840;2023-03-14T11:44:18;74877.09;;;-145.72;100.00
15914;BME280;8055;51.930;8.840;2023-03-14T11:49:53;74961.91;;;-145.72;100.00
15914;BME280;8055;51.930;8.840;2023-03-14T11:52:30;74999.16;;;-145.72;100.00
15914;BME280;8055;51.930;8.840;2023-03-14T11:55:27;75021.91;;;-145.72;100.00
15914;BME280;8055;51.930;8.840;2023-03-14T11:57:57;75071.56;;;-145.72;100.00
15914;BME280;8055;51.930;8.840;2023-03-14T12:00:24;75108.78;;;-145.72;100.00
15914;BME280;8055;51.930;8.840;2023-03-14T12:11:09;75189.47;;;-145.72;100.00
15914;BME280;8055;51.930;8.840;2023-03-14T12:13:38;75193.63;;;-145.72;100.00
15914;BME280;8055;51.930;8.840;2023-03-14T12:16:35;75210.16;;;-145.72;100.00
15914;BME280;8055;51.930;8.840;2023-03-14T12:21:50;75253.63;;;-145.72;100.00
15914;BME280;8055;51.930;8.840;2023-03-14T12:24:19;75255.69;;;-145.72;100.00
15914;BME280;8055;51.930;8.840;2023-03-14T12:26:55;75270.16;;;-145.72;100.00
15914;BME280;8055;51.930;8.840;2023-03-14T12:29:21;75297.06;;;-145.72;100.00
15914;BME280;8055;51.930;8.840;2023-03-14T12:31:49;75309.47;;;-145.72;100.00
15914;BME280;8055;51.930;8.840;2023-03-14T12:42:04;75315.69;;;-145.72;100.00
15914;BME280;8055;51.930;8.840;2023-03-14T12:47:00;75311.56;;;-145.72;100.00
15914;BME280;8055;51.930;8.840;2023-03-14T12:49:39;75317.75;;;-145.72;100.00
15914;BME280;8055;51.930;8.840;2023-03-14T12:52:14;75301.19;;;-145.72;100.00
15914;BME280;8055;51.930;8.840;2023-03-14T12:54:52;75305.34;;;-145.72;100.00
15914;BME280;8055;51.930;8.840;2023-03-14T13:00:18;75305.34;;;-145.72;100.00
15914;BME280;8055;51.930;8.840;2023-03-14T13:02:46;75311.56;;;-145.72;100.00
15914;BME280;8055;51.930;8.840;2023-03-14T13:05:21;75309.47;;;-145.72;100.00
15914;BME280;8055;51.930;8.840;2023-03-14T13:10:20;75297.06;;;-145.72;100.00
15914;BME280;8055;51.930;8.840;2023-03-14T13:18:03;75282.59;;;-145.72;100.00
15914;BME280;8055;51.930;8.840;2023-03-14T13:20:37;75292.94;;;-145.72;100.00
15914;BME280;8055;51.930;8.840;2023-03-14T13:23:04;75315.69;;;-145.72;100.00
15914;BME280;8055;51.930;8.840;2023-03-14T13:25:33;75319.81;;;-145.72;100.00
15914;BME280;8055;51.930;8.840;2023-03-14T13:28:00;75319.81;;;-145.72;100.00
15914;BME280;8055;51.930;8.840;2023-03-14T13:30:28;75313.63;;;-145.72;100.00
15914;BME280;8055;51.930;8.840;2023-03-14T13:33:03;75328.09;;;-145.72;100.00
15914;BME280;8055;51.930;8.840;2023-03-14T13:35:38;75328.09;;;-145.72;100.00
15914;BME280;8055;51.930;8.840;2023-03-14T13:38:04;75332.25;;;-145.72;100.00
15914;BME280;8055;51.930;8.840;2023-03-14T13:40:31;75332.25;;;-145.72;100.00
15914;BME280;8055;51.930;8.840;2023-03-14T13:43:23;75359.13;;;-145.72;100.00
15914;BME280;8055;51.930;8.840;2023-03-14T13:46:02;75421.22;;;-145.72;100.00
15914;BME280;8055;51.930;8.840;2023-03-14T13:48:29;75464.66;;;-145.72;100.00